createdAt,value
2018-01-10T00:00:43.576Z,2.7
2018-01-10T00:01:45.968Z,2.7
2018-01-10T00:02:48.667Z,2.7
2018-01-10T00:03:51.078Z,2.8
2018-01-10T00:04:53.480Z,2.7
2018-01-10T00:05:55.896Z,2.8
2018-01-10T00:06:58.310Z,2.7
2018-01-10T00:08:00.716Z,2.7
2018-01-10T00:09:03.129Z,2.7
2018-01-10T00:10:06.316Z,2.7
2018-01-10T00:11:08.996Z,2.7
2018-01-10T00:12:11.414Z,2.7
2018-01-10T00:13:13.821Z,2.7
2018-01-10T00:14:16.234Z,2.7
2018-01-10T00:15:18.652Z,2.7
2018-01-10T00:16:21.066Z,2.7
2018-01-10T00:17:23.489Z,2.7
2018-01-10T00:18:25.907Z,2.7
2018-01-10T00:19:28.303Z,2.7
2018-01-10T00:20:30.999Z,2.7
2018-01-10T00:21:33.405Z,2.7
2018-01-10T00:22:35.822Z,2.7
2018-01-10T00:23:38.225Z,2.7
2018-01-10T00:24:40.632Z,2.7
2018-01-10T00:25:43.342Z,2.7
2018-01-10T00:26:45.755Z,2.7
2018-01-10T00:27:48.268Z,2.7
2018-01-10T00:28:50.688Z,2.7
2018-01-10T00:29:53.100Z,2.7
2018-01-10T00:30:55.550Z,2.7
2018-01-10T00:31:58.053Z,2.7
2018-01-10T00:33:00.743Z,2.7
2018-01-10T00:34:03.322Z,2.7
2018-01-10T00:35:05.751Z,2.7
2018-01-10T00:36:08.431Z,2.7
2018-01-10T00:37:10.842Z,2.7
2018-01-10T00:38:13.249Z,2.7
2018-01-10T00:39:15.652Z,2.7
2018-01-10T00:40:18.057Z,2.7
2018-01-10T00:41:20.477Z,2.7
2018-01-10T00:42:23.182Z,2.7
2018-01-10T00:43:25.604Z,2.7
2018-01-10T00:44:28.019Z,2.7
2018-01-10T00:45:30.708Z,2.7
2018-01-10T00:46:33.130Z,2.7
2018-01-10T00:47:35.534Z,2.7
2018-01-10T00:48:37.940Z,2.7
2018-01-10T00:49:40.352Z,2.7
2018-01-10T00:50:42.760Z,2.7
2018-01-10T00:51:45.158Z,2.7
2018-01-10T00:52:47.861Z,2.7
2018-01-10T00:53:50.274Z,2.7
2018-01-10T00:54:52.694Z,2.7
2018-01-10T00:55:55.099Z,2.7
2018-01-10T00:56:57.519Z,2.7
2018-01-10T00:58:00.490Z,2.7
2018-01-10T00:59:02.915Z,2.7
2018-01-10T01:00:05.315Z,2.7
2018-01-10T01:01:07.939Z,2.7
2018-01-10T01:02:10.348Z,2.7
2018-01-10T01:03:13.051Z,2.7
2018-01-10T01:04:15.467Z,2.7
2018-01-10T01:05:17.871Z,2.7
2018-01-10T01:06:20.570Z,2.7
2018-01-10T01:07:22.961Z,2.7
2018-01-10T01:08:25.378Z,2.7
2018-01-10T01:09:27.805Z,2.7
2018-01-10T01:10:30.203Z,2.7
2018-01-10T01:11:32.620Z,2.7
2018-01-10T01:12:35.035Z,2.7
2018-01-10T01:13:37.446Z,2.7
2018-01-10T01:14:39.983Z,2.7
2018-01-10T01:15:42.392Z,2.6
2018-01-10T01:16:44.789Z,2.6
2018-01-10T01:17:47.205Z,2.6
2018-01-10T01:18:49.649Z,2.6
2018-01-10T01:19:52.049Z,2.6
2018-01-10T01:20:55.198Z,2.7
2018-01-10T01:21:57.607Z,2.7
2018-01-10T01:23:00.030Z,2.7
2018-01-10T01:24:02.433Z,2.7
2018-01-10T01:25:04.914Z,2.7
2018-01-10T01:26:07.323Z,2.7
2018-01-10T01:27:09.732Z,2.7
2018-01-10T01:28:12.135Z,2.7
2018-01-10T01:29:14.551Z,2.7
2018-01-10T01:30:17.235Z,2.7
2018-01-10T01:31:19.639Z,2.7
2018-01-10T01:32:22.340Z,2.7
2018-01-10T01:33:25.320Z,2.7
2018-01-10T01:34:27.745Z,2.7
2018-01-10T01:35:30.156Z,2.7
2018-01-10T01:36:32.559Z,2.6
2018-01-10T01:37:34.974Z,2.6
2018-01-10T01:38:37.389Z,2.6
2018-01-10T01:39:39.804Z,2.7
2018-01-10T01:40:42.221Z,2.7
2018-01-10T01:41:44.629Z,2.6
2018-01-10T01:42:47.034Z,2.6
2018-01-10T01:43:49.463Z,2.6
2018-01-10T01:44:51.861Z,2.7
2018-01-10T01:45:54.448Z,2.7
2018-01-10T01:46:56.854Z,2.7
2018-01-10T01:47:59.400Z,2.7
2018-01-10T01:49:01.806Z,2.7
2018-01-10T01:50:04.217Z,2.7
2018-01-10T01:51:06.637Z,2.6
2018-01-10T01:52:09.048Z,2.6
2018-01-10T01:53:11.457Z,2.6
2018-01-10T01:54:13.863Z,2.6
2018-01-10T01:55:16.396Z,2.6
2018-01-10T01:56:19.076Z,2.6
2018-01-10T01:57:21.500Z,2.6
2018-01-10T01:58:24.233Z,2.6
2018-01-10T01:59:26.644Z,2.6
2018-01-10T02:00:29.061Z,2.6
2018-01-10T02:01:31.477Z,2.6
2018-01-10T02:02:33.887Z,2.6
2018-01-10T02:03:36.303Z,2.6
2018-01-10T02:04:38.714Z,2.6
2018-01-10T02:05:41.131Z,2.6
2018-01-10T02:06:43.552Z,2.6
2018-01-10T02:07:45.949Z,2.6
2018-01-10T02:08:48.368Z,2.6
2018-01-10T02:09:51.071Z,2.5
2018-01-10T02:10:53.750Z,2.6
2018-01-10T02:11:56.165Z,2.5
2018-01-10T02:12:58.584Z,2.6
2018-01-10T02:14:00.985Z,2.6
2018-01-10T02:15:03.408Z,2.6
2018-01-10T02:16:05.812Z,2.6
2018-01-10T02:17:08.506Z,2.6
2018-01-10T02:18:10.918Z,2.6
2018-01-10T02:19:13.332Z,2.6
2018-01-10T02:20:15.739Z,2.6
2018-01-10T02:21:18.158Z,2.6
2018-01-10T02:22:20.871Z,2.6
2018-01-10T02:23:23.285Z,2.6
2018-01-10T02:24:25.964Z,2.6
2018-01-10T02:25:28.483Z,2.6
2018-01-10T02:26:30.892Z,2.6
2018-01-10T02:27:33.487Z,2.6
2018-01-10T02:28:35.898Z,2.6
2018-01-10T02:29:38.306Z,2.5
2018-01-10T02:30:40.718Z,2.6
2018-01-10T02:31:43.140Z,2.6
2018-01-10T02:32:45.555Z,2.6
2018-01-10T02:33:47.957Z,2.6
2018-01-10T02:34:50.372Z,2.5
2018-01-10T02:35:53.069Z,2.5
2018-01-10T02:36:55.858Z,2.5
2018-01-10T02:37:58.263Z,2.5
2018-01-10T02:39:00.668Z,2.5
2018-01-10T02:40:03.178Z,2.5
2018-01-10T02:41:05.602Z,2.5
2018-01-10T02:42:08.002Z,2.5
2018-01-10T02:43:10.428Z,2.5
2018-01-10T02:44:12.840Z,2.5
2018-01-10T02:45:15.251Z,2.5
2018-01-10T02:46:17.683Z,2.5
2018-01-10T02:47:20.756Z,2.5
2018-01-10T02:48:23.153Z,2.5
2018-01-10T02:49:25.848Z,2.5
2018-01-10T02:50:28.250Z,2.6
2018-01-10T02:51:30.661Z,2.6
2018-01-10T02:52:33.384Z,2.6
2018-01-10T02:53:35.802Z,2.5
2018-01-10T02:54:38.210Z,2.5
2018-01-10T02:55:40.633Z,2.5
2018-01-10T02:56:43.044Z,2.5
2018-01-10T02:57:45.476Z,2.5
2018-01-10T02:58:47.913Z,2.5
2018-01-10T02:59:50.319Z,2.6
2018-01-10T03:00:53.216Z,2.6
2018-01-10T03:01:55.920Z,2.5
2018-01-10T03:02:59.065Z,2.5
2018-01-10T03:04:01.948Z,2.6
2018-01-10T03:05:04.515Z,2.5
2018-01-10T03:06:07.701Z,2.5
2018-01-10T03:07:10.344Z,2.5
2018-01-10T03:08:12.908Z,2.5
2018-01-10T03:09:15.472Z,2.5
2018-01-10T03:10:18.024Z,2.5
2018-01-10T03:11:20.576Z,2.5
2018-01-10T03:12:23.791Z,2.5
2018-01-10T03:13:26.349Z,2.5
2018-01-10T03:14:28.955Z,2.5
2018-01-10T03:15:31.500Z,2.5
2018-01-10T03:16:33.914Z,2.5
2018-01-10T03:17:36.436Z,2.4
2018-01-10T03:18:38.855Z,2.4
2018-01-10T03:19:41.267Z,2.4
2018-01-10T03:20:43.678Z,2.4
2018-01-10T03:21:46.101Z,2.5
2018-01-10T03:22:48.513Z,2.5
2018-01-10T03:23:50.916Z,2.4
2018-01-10T03:24:53.327Z,2.4
2018-01-10T03:25:55.846Z,2.4
2018-01-10T03:26:58.428Z,2.4
2018-01-10T03:28:00.845Z,2.4
2018-01-10T03:29:03.293Z,2.4
2018-01-10T03:30:05.744Z,2.4
2018-01-10T03:31:08.464Z,2.4
2018-01-10T03:32:10.868Z,2.4
2018-01-10T03:33:13.281Z,2.4
2018-01-10T03:34:15.690Z,2.4
2018-01-10T03:35:18.381Z,2.3
2018-01-10T03:36:20.789Z,2.3
2018-01-10T03:37:23.206Z,2.3
2018-01-10T03:38:25.889Z,2.3
2018-01-10T03:39:28.299Z,2.3
2018-01-10T03:40:30.723Z,2.3
2018-01-10T03:41:33.124Z,2.3
2018-01-10T03:42:35.529Z,2.3
2018-01-10T03:43:37.938Z,2.2
2018-01-10T03:44:40.347Z,2.3
2018-01-10T03:45:42.784Z,2.3
2018-01-10T03:46:45.344Z,2.3
2018-01-10T03:47:48.153Z,2.2
2018-01-10T03:48:50.743Z,2.3
2018-01-10T03:49:53.153Z,2.2
2018-01-10T03:50:55.602Z,2.3
2018-01-10T03:51:58.295Z,2.2
2018-01-10T03:53:00.711Z,2.2
2018-01-10T03:54:03.116Z,2.2
2018-01-10T03:55:05.805Z,2.2
2018-01-10T03:56:08.220Z,2.2
2018-01-10T03:57:10.909Z,2.2
2018-01-10T03:58:13.323Z,2.2
2018-01-10T03:59:15.732Z,2.2
2018-01-10T04:00:18.140Z,2.2
2018-01-10T04:01:20.550Z,2.2
2018-01-10T04:02:22.979Z,2.2
2018-01-10T04:03:25.370Z,2.2
2018-01-10T04:04:27.797Z,2.2
2018-01-10T04:05:30.204Z,2.2
2018-01-10T04:06:32.616Z,2.3
2018-01-10T04:07:35.044Z,2.3
2018-01-10T04:08:37.497Z,2.3
2018-01-10T04:09:40.049Z,2.3
2018-01-10T04:10:42.761Z,2.3
2018-01-10T04:11:45.260Z,2.3
2018-01-10T04:12:47.858Z,2.3
2018-01-10T04:13:50.268Z,2.3
2018-01-10T04:14:52.681Z,2.3
2018-01-10T04:15:55.089Z,2.3
2018-01-10T04:16:57.500Z,2.3
2018-01-10T04:17:59.919Z,2.3
2018-01-10T04:19:02.600Z,2.3
2018-01-10T04:20:05.013Z,2.3
2018-01-10T04:21:07.713Z,2.3
2018-01-10T04:22:10.116Z,2.3
2018-01-10T04:23:12.808Z,2.3
2018-01-10T04:24:15.216Z,2.3
2018-01-10T04:25:17.619Z,2.3
2018-01-10T04:26:20.038Z,2.3
2018-01-10T04:27:22.733Z,2.3
2018-01-10T04:28:25.127Z,2.3
2018-01-10T04:29:27.568Z,2.3
2018-01-10T04:30:30.187Z,2.3
2018-01-10T04:31:32.616Z,2.3
2018-01-10T04:32:35.035Z,2.2
2018-01-10T04:33:37.562Z,2.2
2018-01-10T04:34:40.254Z,2.2
2018-01-10T04:35:42.662Z,2.2
2018-01-10T04:36:45.065Z,2.2
2018-01-10T04:37:47.468Z,2.2
2018-01-10T04:38:49.872Z,2.2
2018-01-10T04:39:52.284Z,2.2
2018-01-10T04:40:54.691Z,2.1
2018-01-10T04:41:57.103Z,2.1
2018-01-10T04:42:59.514Z,2.1
2018-01-10T04:44:01.928Z,2.1
2018-01-10T04:45:04.334Z,2.1
2018-01-10T04:46:06.753Z,2.1
2018-01-10T04:47:09.153Z,2.1
2018-01-10T04:48:11.562Z,2.1
2018-01-10T04:49:13.975Z,2.1
2018-01-10T04:50:16.378Z,2.1
2018-01-10T04:51:18.815Z,2.1
2018-01-10T04:52:21.356Z,2.1
2018-01-10T04:53:23.818Z,2.1
2018-01-10T04:54:26.584Z,2.1
2018-01-10T04:55:28.992Z,2.1
2018-01-10T04:56:31.561Z,2.1
2018-01-10T04:57:33.965Z,2.1
2018-01-10T04:58:36.665Z,2.1
2018-01-10T04:59:39.064Z,2.1
2018-01-10T05:00:41.760Z,2.1
2018-01-10T05:01:44.174Z,2.1
2018-01-10T05:02:46.571Z,2.1
2018-01-10T05:03:49.281Z,2.2
2018-01-10T05:04:51.683Z,2.2
2018-01-10T05:05:54.090Z,2.2
2018-01-10T05:06:56.788Z,2.2
2018-01-10T05:07:59.202Z,2.2
2018-01-10T05:09:01.609Z,2.2
2018-01-10T05:10:04.028Z,2.2
2018-01-10T05:11:06.707Z,2.2
2018-01-10T05:12:09.132Z,2.2
2018-01-10T05:13:11.843Z,2.1
2018-01-10T05:14:14.515Z,2.1
2018-01-10T05:15:16.927Z,2.1
2018-01-10T05:16:19.673Z,2.1
2018-01-10T05:17:22.148Z,2.1
2018-01-10T05:18:25.232Z,2.1
2018-01-10T05:19:27.913Z,2.1
2018-01-10T05:20:32.129Z,2.1
2018-01-10T05:21:35.066Z,2.1
2018-01-10T05:22:37.529Z,2.1
2018-01-10T05:23:40.045Z,2.1
2018-01-10T05:24:42.575Z,2.1
2018-01-10T05:25:45.332Z,2
2018-01-10T05:26:47.879Z,2
2018-01-10T05:27:50.460Z,2
2018-01-10T05:28:52.893Z,2
2018-01-10T05:29:55.303Z,2
2018-01-10T05:30:57.709Z,2
2018-01-10T05:32:00.115Z,2
2018-01-10T05:33:02.526Z,2
2018-01-10T05:34:05.643Z,2
2018-01-10T05:35:08.270Z,2
2018-01-10T05:36:10.736Z,2
2018-01-10T05:37:13.153Z,2
2018-01-10T05:38:15.563Z,2
2018-01-10T05:39:17.970Z,2
2018-01-10T05:40:20.383Z,2
2018-01-10T05:41:22.787Z,2
2018-01-10T05:42:25.310Z,2
2018-01-10T05:43:27.730Z,2
2018-01-10T05:44:30.184Z,2
2018-01-10T05:45:32.598Z,2
2018-01-10T05:46:35.019Z,2
2018-01-10T05:47:37.419Z,2
2018-01-10T05:48:40.107Z,2
2018-01-10T05:49:42.819Z,2
2018-01-10T05:50:45.228Z,2
2018-01-10T05:51:47.626Z,2
2018-01-10T05:52:50.037Z,2
2018-01-10T05:53:52.463Z,2
2018-01-10T05:54:54.867Z,2
2018-01-10T05:55:57.392Z,2
2018-01-10T05:56:59.844Z,2
2018-01-10T05:58:02.540Z,2
2018-01-10T05:59:05.254Z,2.1
2018-01-10T06:00:07.664Z,2.1
2018-01-10T06:01:10.079Z,2.1
2018-01-10T06:02:12.570Z,2.1
2018-01-10T06:03:15.402Z,2.1
2018-01-10T06:04:18.183Z,2.1
2018-01-10T06:05:20.598Z,2.1
2018-01-10T06:06:23.489Z,2.1
2018-01-10T06:07:26.178Z,2.1
2018-01-10T06:08:28.606Z,2.1
2018-01-10T06:09:31.018Z,2.1
2018-01-10T06:10:33.746Z,2.1
2018-01-10T06:11:36.436Z,2
2018-01-10T06:12:38.846Z,2.1
2018-01-10T06:13:41.265Z,2.1
2018-01-10T06:14:43.682Z,2.1
2018-01-10T06:15:46.108Z,2.1
2018-01-10T06:16:48.807Z,2.1
2018-01-10T06:17:51.237Z,2.1
2018-01-10T06:18:53.648Z,2.1
2018-01-10T06:19:56.377Z,2.1
2018-01-10T06:20:58.801Z,2.1
2018-01-10T06:22:01.218Z,2
2018-01-10T06:23:03.755Z,2
2018-01-10T06:24:06.275Z,2
2018-01-10T06:25:08.841Z,2
2018-01-10T06:26:11.251Z,2
2018-01-10T06:27:13.765Z,2
2018-01-10T06:28:16.193Z,2
2018-01-10T06:29:18.877Z,2
2018-01-10T06:30:21.290Z,2
2018-01-10T06:31:23.704Z,2
2018-01-10T06:32:26.118Z,2
2018-01-10T06:33:28.534Z,2
2018-01-10T06:34:30.931Z,2
2018-01-10T06:35:33.342Z,2
2018-01-10T06:36:35.763Z,1.9
2018-01-10T06:37:38.167Z,2
2018-01-10T06:38:40.577Z,2
2018-01-10T06:39:42.993Z,1.9
2018-01-10T06:40:45.692Z,2
2018-01-10T06:41:48.120Z,2
2018-01-10T06:42:50.527Z,1.9
2018-01-10T06:43:52.979Z,1.9
2018-01-10T06:44:55.854Z,1.9
2018-01-10T06:45:58.355Z,1.9
2018-01-10T06:47:01.190Z,1.9
2018-01-10T06:48:03.588Z,1.9
2018-01-10T06:49:06.069Z,1.9
2018-01-10T06:50:08.470Z,1.9
2018-01-10T06:51:10.873Z,1.8
2018-01-10T06:52:13.285Z,1.8
2018-01-10T06:53:15.691Z,1.8
2018-01-10T06:54:18.102Z,1.8
2018-01-10T06:55:20.514Z,1.8
2018-01-10T06:56:23.245Z,1.8
2018-01-10T06:57:25.666Z,1.8
2018-01-10T06:58:28.070Z,1.8
2018-01-10T06:59:30.772Z,1.8
2018-01-10T07:00:33.178Z,1.8
2018-01-10T07:01:35.596Z,1.8
2018-01-10T07:02:38.006Z,1.8
2018-01-10T07:03:40.416Z,1.8
2018-01-10T07:04:42.829Z,1.8
2018-01-10T07:05:45.390Z,1.8
2018-01-10T07:06:47.845Z,1.8
2018-01-10T07:07:50.338Z,1.8
2018-01-10T07:08:52.791Z,1.9
2018-01-10T07:09:55.204Z,1.9
2018-01-10T07:10:57.763Z,1.9
2018-01-10T07:12:00.172Z,1.9
2018-01-10T07:13:02.584Z,1.9
2018-01-10T07:14:04.998Z,2
2018-01-10T07:15:07.689Z,2.2
2018-01-10T07:16:10.102Z,2
2018-01-10T07:17:12.814Z,2
2018-01-10T07:18:15.503Z,1.9
2018-01-10T07:19:17.909Z,1.9
2018-01-10T07:20:20.312Z,1.9
2018-01-10T07:21:22.717Z,1.9
2018-01-10T07:22:25.431Z,1.9
2018-01-10T07:23:27.851Z,1.9
2018-01-10T07:24:30.255Z,1.9
2018-01-10T07:25:32.665Z,1.9
2018-01-10T07:26:35.108Z,1.9
2018-01-10T07:27:37.636Z,1.9
2018-01-10T07:28:40.058Z,1.9
2018-01-10T07:29:42.549Z,1.9
2018-01-10T07:30:44.981Z,1.9
2018-01-10T07:31:47.682Z,1.9
2018-01-10T07:32:50.094Z,1.9
2018-01-10T07:33:52.499Z,1.9
2018-01-10T07:34:55.187Z,1.9
2018-01-10T07:35:57.602Z,1.9
2018-01-10T07:37:00.291Z,1.9
2018-01-10T07:38:02.707Z,1.9
2018-01-10T07:39:05.098Z,1.9
2018-01-10T07:40:07.512Z,1.9
2018-01-10T07:41:09.937Z,1.9
2018-01-10T07:42:12.343Z,1.9
2018-01-10T07:43:15.041Z,1.9
2018-01-10T07:44:17.448Z,1.9
2018-01-10T07:45:20.138Z,1.9
2018-01-10T07:46:22.557Z,2
2018-01-10T07:47:24.965Z,1.9
2018-01-10T07:48:27.458Z,2
2018-01-10T07:49:29.911Z,2
2018-01-10T07:50:32.673Z,2
2018-01-10T07:51:35.192Z,2
2018-01-10T07:52:37.661Z,2
2018-01-10T07:53:40.071Z,2
2018-01-10T07:54:42.772Z,2.1
2018-01-10T07:55:45.174Z,2
2018-01-10T07:56:47.582Z,2
2018-01-10T07:57:49.985Z,2
2018-01-10T07:58:52.402Z,2.1
2018-01-10T07:59:55.085Z,2.1
2018-01-10T08:00:57.566Z,2.1
2018-01-10T08:02:00.662Z,2.1
2018-01-10T08:03:03.066Z,2.2
2018-01-10T08:04:06.537Z,2.2
2018-01-10T08:05:09.355Z,2.2
2018-01-10T08:06:11.751Z,2.2
2018-01-10T08:07:14.534Z,2.2
2018-01-10T08:08:17.045Z,2.2
2018-01-10T08:09:19.454Z,2.2
2018-01-10T08:10:21.862Z,2.2
2018-01-10T08:11:24.276Z,2.2
2018-01-10T08:12:26.686Z,2.2
2018-01-10T08:13:29.098Z,2.2
2018-01-10T08:14:31.776Z,2.2
2018-01-10T08:15:34.462Z,2.3
2018-01-10T08:16:37.160Z,2.2
2018-01-10T08:17:39.852Z,2.3
2018-01-10T08:18:42.260Z,2.3
2018-01-10T08:19:44.663Z,2.3
2018-01-10T08:20:47.079Z,2.3
2018-01-10T08:21:49.478Z,2.4
2018-01-10T08:22:51.901Z,2.3
2018-01-10T08:23:54.304Z,2.3
2018-01-10T08:24:56.712Z,2.3
2018-01-10T08:25:59.180Z,2.4
2018-01-10T08:27:01.744Z,2.3
2018-01-10T08:28:04.209Z,2.4
2018-01-10T08:29:06.621Z,2.4
2018-01-10T08:30:09.154Z,2.3
2018-01-10T08:31:11.569Z,2.3
2018-01-10T08:32:13.974Z,2.3
2018-01-10T08:33:16.432Z,2.4
2018-01-10T08:34:18.789Z,2.3
2018-01-10T08:35:21.199Z,2.4
2018-01-10T08:36:23.601Z,2.4
2018-01-10T08:37:26.310Z,2.4
2018-01-10T08:38:28.985Z,2.4
2018-01-10T08:39:31.404Z,2.4
2018-01-10T08:40:33.820Z,2.4
2018-01-10T08:41:36.228Z,2.4
2018-01-10T08:42:38.636Z,2.4
2018-01-10T08:43:41.045Z,2.4
2018-01-10T08:44:43.729Z,2.4
2018-01-10T08:45:46.141Z,2.4
2018-01-10T08:46:48.852Z,2.4
2018-01-10T08:47:51.285Z,2.4
2018-01-10T08:48:53.967Z,2.5
2018-01-10T08:49:56.372Z,2.5
2018-01-10T08:50:58.783Z,2.5
2018-01-10T08:52:01.191Z,2.5
2018-01-10T08:53:03.887Z,2.5
2018-01-10T08:54:06.293Z,2.5
2018-01-10T08:55:09.008Z,2.6
2018-01-10T08:56:11.427Z,2.6
2018-01-10T08:57:14.132Z,2.5
2018-01-10T08:58:16.871Z,2.5
2018-01-10T08:59:19.280Z,2.5
2018-01-10T09:00:21.686Z,2.5
2018-01-10T09:01:24.095Z,2.5
2018-01-10T09:02:26.515Z,2.6
2018-01-10T09:03:28.924Z,2.6
2018-01-10T09:04:31.608Z,2.6
2018-01-10T09:05:34.023Z,2.7
2018-01-10T09:06:36.728Z,2.7
2018-01-10T09:07:39.135Z,2.8
2018-01-10T09:08:41.544Z,2.8
2018-01-10T09:09:43.944Z,3
2018-01-10T09:10:46.356Z,3
2018-01-10T09:11:49.087Z,3.1
2018-01-10T09:12:51.496Z,3.2
2018-01-10T09:13:53.906Z,3.3
2018-01-10T09:14:56.323Z,3.3
2018-01-10T09:15:59.042Z,3.3
2018-01-10T09:17:01.456Z,3.3
2018-01-10T09:18:03.868Z,3.3
2018-01-10T09:19:06.574Z,3.3
2018-01-10T09:20:08.980Z,3.4
2018-01-10T09:21:11.682Z,3.3
2018-01-10T09:22:14.085Z,3.3
2018-01-10T09:23:16.501Z,3.2
2018-01-10T09:24:18.911Z,3.2
2018-01-10T09:25:21.323Z,3.1
2018-01-10T09:26:23.738Z,3.1
2018-01-10T09:27:26.154Z,3.1
2018-01-10T09:28:28.547Z,3.1
2018-01-10T09:29:31.258Z,3
2018-01-10T09:30:33.671Z,3
2018-01-10T09:31:36.365Z,3
2018-01-10T09:32:38.777Z,3
2018-01-10T09:33:41.481Z,3
2018-01-10T09:34:44.453Z,3
2018-01-10T09:35:46.883Z,2.9
2018-01-10T09:36:49.277Z,2.9
2018-01-10T09:37:51.974Z,2.9
2018-01-10T09:38:54.380Z,2.9
2018-01-10T09:39:56.787Z,2.9
2018-01-10T09:40:59.204Z,3
2018-01-10T09:42:01.621Z,3
2018-01-10T09:43:04.590Z,3
2018-01-10T09:44:07.308Z,2.9
2018-01-10T09:45:09.721Z,2.9
2018-01-10T09:46:12.407Z,3
2018-01-10T09:47:15.089Z,3
2018-01-10T09:48:17.500Z,3
2018-01-10T09:49:19.911Z,3.1
2018-01-10T09:50:22.626Z,3.1
2018-01-10T09:51:25.041Z,3.1
2018-01-10T09:52:27.451Z,3.1
2018-01-10T09:53:29.862Z,3.1
2018-01-10T09:54:32.596Z,3.1
2018-01-10T09:55:35.004Z,3.1
2018-01-10T09:56:37.409Z,3.1
2018-01-10T09:57:39.817Z,3.1
2018-01-10T09:58:42.228Z,3.1
2018-01-10T09:59:44.648Z,3.2
2018-01-10T10:00:47.063Z,3.1
2018-01-10T10:01:49.646Z,3.2
2018-01-10T10:02:52.058Z,3.1
2018-01-10T10:03:54.470Z,3.2
2018-01-10T10:04:56.877Z,3.2
2018-01-10T10:05:59.356Z,3.2
2018-01-10T10:07:02.509Z,3.2
2018-01-10T10:08:06.183Z,3.3
2018-01-10T10:09:09.886Z,3.3
2018-01-10T10:10:12.520Z,3.3
2018-01-10T10:11:15.905Z,3.3
2018-01-10T10:12:18.632Z,3.3
2018-01-10T10:13:21.600Z,3.3
2018-01-10T10:14:25.091Z,3.3
2018-01-10T10:15:28.623Z,3.4
2018-01-10T10:16:32.414Z,3.3
2018-01-10T10:17:34.916Z,3.4
2018-01-10T10:18:37.508Z,3.4
2018-01-10T10:19:39.965Z,3.5
2018-01-10T10:20:42.390Z,3.5
2018-01-10T10:21:44.801Z,3.6
2018-01-10T10:22:47.487Z,3.7
2018-01-10T10:23:49.904Z,3.7
2018-01-10T10:24:52.307Z,3.7
2018-01-10T10:25:54.719Z,3.9
2018-01-10T10:26:57.129Z,4
2018-01-10T10:27:59.526Z,4.1
2018-01-10T10:29:01.955Z,4.4
2018-01-10T10:30:04.369Z,4.7
2018-01-10T10:31:06.775Z,4.7
2018-01-10T10:32:09.192Z,4.8
2018-01-10T10:33:11.876Z,4.8
2018-01-10T10:34:14.287Z,5
2018-01-10T10:35:16.714Z,5.2
2018-01-10T10:36:19.397Z,5.3
2018-01-10T10:37:21.813Z,5.2
2018-01-10T10:38:24.228Z,5.3
2018-01-10T10:39:26.635Z,5.4
2018-01-10T10:40:29.052Z,5.4
2018-01-10T10:41:31.473Z,5.5
2018-01-10T10:42:33.876Z,5.5
2018-01-10T10:43:36.290Z,5.3
2018-01-10T10:44:38.716Z,5.4
2018-01-10T10:45:41.126Z,5.6
2018-01-10T10:46:43.822Z,5.6
2018-01-10T10:47:46.242Z,5.7
2018-01-10T10:48:48.663Z,5.7
2018-01-10T10:49:51.082Z,5.6
2018-01-10T10:50:53.788Z,5.8
2018-01-10T10:51:56.488Z,5.9
2018-01-10T10:52:58.907Z,6.1
2018-01-10T10:54:01.609Z,6.3
2018-01-10T10:55:04.025Z,6.4
2018-01-10T10:56:06.717Z,6.7
2018-01-10T10:57:09.416Z,6.8
2018-01-10T10:58:11.838Z,6.6
2018-01-10T10:59:14.265Z,6.5
2018-01-10T11:00:16.674Z,6.7
2018-01-10T11:01:19.372Z,7.1
2018-01-10T11:02:21.784Z,6.9
2018-01-10T11:03:24.202Z,6.9
2018-01-10T11:04:26.623Z,7
2018-01-10T11:05:29.040Z,7.1
2018-01-10T11:06:31.463Z,7.4
2018-01-10T11:07:33.891Z,7.4
2018-01-10T11:08:36.305Z,7.3
2018-01-10T11:09:39.019Z,7.4
2018-01-10T11:10:41.434Z,7.4
2018-01-10T11:11:43.853Z,7.4
2018-01-10T11:12:46.568Z,7.3
2018-01-10T11:13:48.985Z,7.3
2018-01-10T11:14:51.404Z,7.3
2018-01-10T11:15:53.804Z,7.2
2018-01-10T11:16:56.235Z,7.2
2018-01-10T11:17:58.943Z,7.4
2018-01-10T11:19:01.365Z,7.4
2018-01-10T11:20:03.782Z,7.4
2018-01-10T11:21:06.200Z,7.4
2018-01-10T11:22:08.896Z,6.9
2018-01-10T11:23:11.316Z,7.3
2018-01-10T11:24:14.009Z,7.6
2018-01-10T11:25:16.433Z,7.6
2018-01-10T11:26:19.131Z,7.6
2018-01-10T11:27:21.566Z,7.4
2018-01-10T11:28:24.278Z,7.4
2018-01-10T11:29:26.699Z,7.3
2018-01-10T11:30:29.705Z,7.2
2018-01-10T11:31:32.130Z,7.2
2018-01-10T11:32:34.544Z,7.1
2018-01-10T11:33:36.979Z,7.4
2018-01-10T11:34:39.387Z,7
2018-01-10T11:35:41.818Z,7.2
2018-01-10T11:36:44.509Z,7.1
2018-01-10T11:37:47.509Z,7.3
2018-01-10T11:38:49.927Z,7.2
2018-01-10T11:39:52.665Z,7.3
2018-01-10T11:40:55.058Z,7.4
2018-01-10T11:41:57.488Z,7
2018-01-10T11:42:59.903Z,7.2
2018-01-10T11:44:02.320Z,7.3
2018-01-10T11:45:04.741Z,7.4
2018-01-10T11:46:07.160Z,7.5
2018-01-10T11:47:09.866Z,7.5
2018-01-10T11:48:12.286Z,7.6
2018-01-10T11:49:14.706Z,7.5
2018-01-10T11:50:17.116Z,7.3
2018-01-10T11:51:19.542Z,7.6
2018-01-10T11:52:21.956Z,7.8
2018-01-10T11:53:24.376Z,8
2018-01-10T11:54:26.800Z,7.8
2018-01-10T11:55:29.221Z,7.7
2018-01-10T11:56:31.640Z,7.8
2018-01-10T11:57:34.350Z,8
2018-01-10T11:58:36.767Z,8.1
2018-01-10T11:59:39.193Z,8.3
2018-01-10T12:00:41.624Z,8.3
2018-01-10T12:01:44.046Z,8.1
2018-01-10T12:02:46.474Z,8.2
2018-01-10T12:03:48.905Z,8.4
2018-01-10T12:04:51.326Z,8.4
2018-01-10T12:05:53.746Z,8.4
2018-01-10T12:06:56.172Z,8.1
2018-01-10T12:07:58.575Z,8.2
2018-01-10T12:09:01.303Z,8.1
2018-01-10T12:10:03.729Z,8.4
2018-01-10T12:11:06.154Z,8.3
2018-01-10T12:12:08.575Z,8.4
2018-01-10T12:13:10.998Z,8.4
2018-01-10T12:14:13.427Z,8.2
2018-01-10T12:15:15.833Z,8.2
2018-01-10T12:16:18.264Z,8.3
2018-01-10T12:17:20.695Z,8.3
2018-01-10T12:18:23.117Z,8.4
2018-01-10T12:19:25.538Z,8.4
2018-01-10T12:20:27.955Z,8.2
2018-01-10T12:21:30.377Z,8.3
2018-01-10T12:22:32.812Z,8.5
2018-01-10T12:23:35.522Z,8.1
2018-01-10T12:24:37.943Z,8.3
2018-01-10T12:25:40.371Z,8.4
2018-01-10T12:26:42.798Z,8.4
2018-01-10T12:27:45.226Z,8.2
2018-01-10T12:28:47.647Z,8.3
2018-01-10T12:29:50.360Z,8.5
2018-01-10T12:30:53.059Z,8.6
2018-01-10T12:31:55.488Z,8.3
2018-01-10T12:32:58.183Z,8.5
2018-01-10T12:34:00.592Z,8.5
2018-01-10T12:35:03.307Z,8.5
2018-01-10T12:36:05.736Z,8.3
2018-01-10T12:37:08.151Z,8.2
2018-01-10T12:38:10.579Z,8.3
2018-01-10T12:39:13.001Z,8.3
2018-01-10T12:40:15.714Z,8.5
2018-01-10T12:41:18.721Z,8.1
2018-01-10T12:42:21.131Z,8
2018-01-10T12:43:23.555Z,7.8
2018-01-10T12:44:25.971Z,7.8
2018-01-10T12:45:28.686Z,7.9
2018-01-10T12:46:31.397Z,7.5
2018-01-10T12:47:33.814Z,7.2
2018-01-10T12:48:36.258Z,7.3
2018-01-10T12:49:38.674Z,7.2
2018-01-10T12:50:41.383Z,7.2
2018-01-10T12:51:43.810Z,7.2
2018-01-10T12:52:46.229Z,6.9
2018-01-10T12:53:48.656Z,7
2018-01-10T12:54:51.647Z,6.8
2018-01-10T12:55:54.057Z,6.7
2018-01-10T12:56:56.476Z,6.8
2018-01-10T12:57:59.195Z,6.8
2018-01-10T12:59:01.613Z,6.8
2018-01-10T13:00:04.050Z,6.8
2018-01-10T13:01:06.480Z,6.6
2018-01-10T13:02:08.945Z,6.7
2018-01-10T13:03:11.371Z,6.6
2018-01-10T13:04:13.816Z,6.6
2018-01-10T13:05:16.223Z,6.6
2018-01-10T13:06:18.664Z,6.5
2018-01-10T13:07:21.098Z,6.5
2018-01-10T13:08:23.536Z,6.3
2018-01-10T13:09:25.948Z,6.3
2018-01-10T13:10:28.362Z,6.1
2018-01-10T13:11:30.815Z,6.3
2018-01-10T13:12:33.248Z,6.3
2018-01-10T13:13:35.717Z,6.2
2018-01-10T13:14:38.138Z,6.3
2018-01-10T13:15:40.556Z,6.3
2018-01-10T13:16:42.983Z,6.4
2018-01-10T13:17:45.714Z,6.3
2018-01-10T13:18:48.139Z,6.1
2018-01-10T13:19:51.165Z,6.1
2018-01-10T13:20:53.879Z,6.1
2018-01-10T13:21:56.301Z,6.1
2018-01-10T13:22:58.736Z,6
2018-01-10T13:24:01.155Z,5.9
2018-01-10T13:25:03.572Z,6
2018-01-10T13:26:05.988Z,6.1
2018-01-10T13:27:08.402Z,6
2018-01-10T13:28:11.132Z,6
2018-01-10T13:29:13.595Z,6
2018-01-10T13:30:16.009Z,5.8
2018-01-10T13:31:18.443Z,5.8
2018-01-10T13:32:20.857Z,5.7
2018-01-10T13:33:23.273Z,5.6
2018-01-10T13:34:25.981Z,5.6
2018-01-10T13:35:28.392Z,5.5
2018-01-10T13:36:30.809Z,5.5
2018-01-10T13:37:33.227Z,5.4
2018-01-10T13:38:35.936Z,5.4
2018-01-10T13:39:38.660Z,5.4
2018-01-10T13:40:41.394Z,5.3
2018-01-10T13:41:43.831Z,5.2
2018-01-10T13:42:46.295Z,5.1
2018-01-10T13:43:48.713Z,5
2018-01-10T13:44:51.258Z,5
2018-01-10T13:45:53.980Z,4.9
2018-01-10T13:46:56.395Z,4.9
2018-01-10T13:47:58.817Z,4.8
2018-01-10T13:49:01.268Z,4.7
2018-01-10T13:50:03.679Z,4.6
2018-01-10T13:51:12.439Z,4.6
2018-01-10T13:52:29.578Z,4.5
2018-01-10T13:53:43.318Z,4.4
2018-01-10T13:54:49.932Z,4.4
2018-01-10T13:55:52.498Z,4.4
2018-01-10T13:56:54.918Z,4.3
2018-01-10T13:57:57.333Z,4.2
2018-01-10T13:58:59.749Z,4.2
2018-01-10T14:00:02.203Z,4.1
2018-01-10T14:01:04.575Z,4.1
2018-01-10T14:02:06.983Z,4.1
2018-01-10T14:03:09.397Z,4.1
2018-01-10T14:04:11.802Z,4.1
2018-01-10T14:05:14.209Z,4
2018-01-10T14:06:16.924Z,3.9
2018-01-10T14:07:19.330Z,3.9
2018-01-10T14:08:21.747Z,3.8
2018-01-10T14:09:24.233Z,3.7
2018-01-10T14:10:26.672Z,3.7
2018-01-10T14:11:29.201Z,3.7
2018-01-10T14:12:31.624Z,3.7
2018-01-10T14:13:34.038Z,3.6
2018-01-10T14:14:36.446Z,3.6
2018-01-10T14:15:38.880Z,3.6
2018-01-10T14:16:41.296Z,3.6
2018-01-10T14:17:43.983Z,3.6
2018-01-10T14:18:46.682Z,3.6
2018-01-10T14:19:49.176Z,3.5
2018-01-10T14:20:51.591Z,3.6
2018-01-10T14:21:54.611Z,3.5
2018-01-10T14:22:57.064Z,3.5
2018-01-10T14:23:59.477Z,3.4
2018-01-10T14:25:01.886Z,3.4
2018-01-10T14:26:04.607Z,3.4
2018-01-10T14:27:07.218Z,3.4
2018-01-10T14:28:09.637Z,3.3